Terminal Aerodrome Forecast
Issued by NWS

Home | Current Version | Previous Version | Text Only | Print | Product List | Glossary Off
Versions: 1 2 3 4 5 6 7 8 9 10 11 12 13 14

000
FTUS43 KIWX 301728
TAFSBN
TAF
KSBN 301728Z 3018/0118 24011KT P6SM FEW200
     FM302200 24011G19KT P6SM BKN015
     FM010200 25011G19KT P6SM OVC040
     FM011000 24012KT P6SM VCSH OVC020=

USA.gov is the U.S. government's official web portal to all federal, state and local government web resources and services.